Portada
METAR-TAF:

METAR-TAF

Aeroports :

Ürümqi, Xina

latitud: 43-54N, longitud: 087-28E, altitud: 654 m

Observació

L'informe es va fer fa 23 minuts, a les 22:00 UTC
Vent calma
Temperatura -12°C
Humitat 78%
Pressió 1028 hPa
Visibilitat 10 km o més
sense núvols per sota de 1500 mi sense presència de cumulonimbus.

METAR: ZWWW 052200Z 00000MPS CAVOK M12/M15 Q1028 NOSIG

Hora: 04:23 (22:23 UTC)

Pronòstic

L'informe es va fer fa 7 hores i 20 minuts, a les 15:03 UTC
Pronòstic vàlid del 05 a les 18 UTC al 06 a les 18 UTC
Vent 4 kt del Sud
Visibilitat: 2000 m
boirina
Evolucionant progressivament
l' 05 a les 22 UTC al 05 a les 23 UTC
Visibilitat: 1100 m
boirina
Evolucionant progressivament
l' 06 a les 03 UTC al 06 a les 04 UTC
Vent 4 kt del Nord
Visibilitat: 2000 m
fum
Evolucionant progressivament
l' 06 a les 12 UTC al 06 a les 13 UTC
Vent 4 kt del Sud

TAF: ZWWW 051503Z 0518/0618 18002MPS 2000 BR NSC TXM06/09Z TNM13/23Z BECMG 0522/0523 1100 BR BECMG 0603/0604 36002MPS 2000 FU BECMG 0612/0613 18002MPS

Observacions i pronòstics meteorològics de més de 4000 aeroports (METAR i TAF).

Les estacions disponibles són els punts grocs i vermells al mapa.

Posi el ratolí al punt desitjat per veure el nom de l'estació.

Feu clic per veure les observacions i els pronòstics meteorològics.

Per canviar el mapa: feu clic els botons verds amb una creu de color negre per apropar; al botó verd amb un guió per allunyar la imatge; o en les fletxes verdes per a mapes adjacents.


METAR-TAF: